Disclaimer

Please do not use the information listed here in-flight or in-navigation, as they are not provided to us by the airports but are provided by volunteers, so they might be outdated.

Search


Regions


Airport information page

Radio informations:
Tower (TWR) - 119.8 MHz
Automatic Terminal Information Service (ATIS) - 136.2 MHz
Approach (APP) - 118.85 MHz

Airport informations:
Latitude: 54° 30' 33.08" N
Longitude: 001° 25' 45.86" W
Elevation: 120 feet - 37 meters
Operating hours: Remarks
Operating agency: Civil government, landing fees and diplomatic clearance may be required
Timezone: UTC 0(+1DT) - Last Sunday in March to last Sunday in October
Fuel: Jet A1, without icing nhibitor.

100/130 MIL Spec, low lead, aviation gasoline (BLUE)

Runway information:
05/23 - 7516 x 151 feet< - >2291 x 46 meters

Recent METARs:
EGNV 192050Z 07014KT 9999 -SHRA FEW021 SCT038 05/03 Q1024
EGNV 192120Z 08012KT 9999 -SHRA FEW017 SCT038 06/04 Q1024
EGNV 192150Z 06010KT 9000 VCSH FEW017 SCT038 06/03 Q1024

Airport on the map: